sensor_id;sensor_type;location;lat;lon;timestamp;P1;durP1;ratioP1;P2;durP2;ratioP2
66751;SDS011;53663;42.676;23.238;2023-11-22T00:00:27;20.38;;;10.85;;
66751;SDS011;53663;42.676;23.238;2023-11-22T00:02:53;20.42;;;10.40;;
66751;SDS011;53663;42.676;23.238;2023-11-22T00:05:18;18.88;;;8.98;;
66751;SDS011;53663;42.676;23.238;2023-11-22T00:07:44;20.98;;;10.27;;
66751;SDS011;53663;42.676;23.238;2023-11-22T00:10:09;18.13;;;10.15;;
66751;SDS011;53663;42.676;23.238;2023-11-22T00:12:35;20.83;;;10.20;;
66751;SDS011;53663;42.676;23.238;2023-11-22T00:15:04;19.02;;;9.73;;
66751;SDS011;53663;42.676;23.238;2023-11-22T00:17:31;17.17;;;9.32;;
66751;SDS011;53663;42.676;23.238;2023-11-22T00:19:58;21.48;;;9.48;;
66751;SDS011;53663;42.676;23.238;2023-11-22T00:22:25;15.27;;;9.13;;
66751;SDS011;53663;42.676;23.238;2023-11-22T00:24:52;17.48;;;9.73;;
66751;SDS011;53663;42.676;23.238;2023-11-22T00:27:19;21.27;;;12.07;;
66751;SDS011;53663;42.676;23.238;2023-11-22T00:29:44;20.90;;;11.25;;
66751;SDS011;53663;42.676;23.238;2023-11-22T00:32:11;17.92;;;9.68;;
66751;SDS011;53663;42.676;23.238;2023-11-22T00:34:37;24.60;;;10.55;;
66751;SDS011;53663;42.676;23.238;2023-11-22T00:37:02;17.17;;;9.98;;
66751;SDS011;53663;42.676;23.238;2023-11-22T00:39:28;17.70;;;10.43;;
66751;SDS011;53663;42.676;23.238;2023-11-22T00:41:53;22.75;;;11.05;;
66751;SDS011;53663;42.676;23.238;2023-11-22T00:44:21;19.33;;;9.57;;
66751;SDS011;53663;42.676;23.238;2023-11-22T00:46:47;17.23;;;10.10;;
66751;SDS011;53663;42.676;23.238;2023-11-22T00:49:14;21.90;;;10.93;;
66751;SDS011;53663;42.676;23.238;2023-11-22T00:51:40;19.60;;;10.98;;
66751;SDS011;53663;42.676;23.238;2023-11-22T00:54:05;19.88;;;10.82;;
66751;SDS011;53663;42.676;23.238;2023-11-22T00:56:31;19.58;;;10.20;;
66751;SDS011;53663;42.676;23.238;2023-11-22T00:58:57;19.48;;;10.88;;
66751;SDS011;53663;42.676;23.238;2023-11-22T01:01:25;24.20;;;10.85;;
66751;SDS011;53663;42.676;23.238;2023-11-22T01:03:51;30.23;;;14.35;;
66751;SDS011;53663;42.676;23.238;2023-11-22T01:06:17;22.80;;;12.82;;
66751;SDS011;53663;42.676;23.238;2023-11-22T01:08:45;21.52;;;11.48;;
66751;SDS011;53663;42.676;23.238;2023-11-22T01:11:13;18.98;;;10.65;;
66751;SDS011;53663;42.676;23.238;2023-11-22T01:13:39;21.70;;;10.20;;
66751;SDS011;53663;42.676;23.238;2023-11-22T01:16:11;19.48;;;10.07;;
66751;SDS011;53663;42.676;23.238;2023-11-22T01:18:38;19.98;;;9.77;;
66751;SDS011;53663;42.676;23.238;2023-11-22T01:21:04;20.65;;;10.52;;
66751;SDS011;53663;42.676;23.238;2023-11-22T01:23:31;20.25;;;9.88;;
66751;SDS011;53663;42.676;23.238;2023-11-22T01:25:59;18.13;;;9.55;;
66751;SDS011;53663;42.676;23.238;2023-11-22T01:28:28;17.10;;;9.82;;
66751;SDS011;53663;42.676;23.238;2023-11-22T01:30:54;17.85;;;10.15;;
66751;SDS011;53663;42.676;23.238;2023-11-22T01:33:20;17.17;;;9.95;;
66751;SDS011;53663;42.676;23.238;2023-11-22T01:35:47;20.05;;;9.63;;
66751;SDS011;53663;42.676;23.238;2023-11-22T01:38:13;17.80;;;9.57;;
66751;SDS011;53663;42.676;23.238;2023-11-22T01:40:46;18.30;;;10.13;;
66751;SDS011;53663;42.676;23.238;2023-11-22T01:43:18;19.60;;;9.38;;
66751;SDS011;53663;42.676;23.238;2023-11-22T01:45:46;16.35;;;9.15;;
66751;SDS011;53663;42.676;23.238;2023-11-22T01:48:12;18.80;;;9.48;;
66751;SDS011;53663;42.676;23.238;2023-11-22T01:50:41;17.42;;;9.73;;
66751;SDS011;53663;42.676;23.238;2023-11-22T01:55:35;24.35;;;10.43;;
66751;SDS011;53663;42.676;23.238;2023-11-22T01:58:00;21.17;;;11.05;;
66751;SDS011;53663;42.676;23.238;2023-11-22T02:00:31;23.85;;;11.68;;
66751;SDS011;53663;42.676;23.238;2023-11-22T02:03:00;23.83;;;12.60;;
66751;SDS011;53663;42.676;23.238;2023-11-22T02:05:27;19.73;;;10.68;;
66751;SDS011;53663;42.676;23.238;2023-11-22T02:07:52;18.80;;;9.55;;
66751;SDS011;53663;42.676;23.238;2023-11-22T02:10:18;23.20;;;11.63;;
66751;SDS011;53663;42.676;23.238;2023-11-22T02:12:43;25.02;;;10.32;;
66751;SDS011;53663;42.676;23.238;2023-11-22T02:15:09;21.75;;;10.63;;
66751;SDS011;53663;42.676;23.238;2023-11-22T02:17:35;21.42;;;9.93;;
66751;SDS011;53663;42.676;23.238;2023-11-22T02:20:01;17.60;;;9.63;;
66751;SDS011;53663;42.676;23.238;2023-11-22T02:22:31;16.42;;;9.35;;
66751;SDS011;53663;42.676;23.238;2023-11-22T02:24:57;15.15;;;8.70;;
66751;SDS011;53663;42.676;23.238;2023-11-22T02:27:22;14.57;;;8.77;;
66751;SDS011;53663;42.676;23.238;2023-11-22T02:29:49;17.35;;;9.48;;
66751;SDS011;53663;42.676;23.238;2023-11-22T02:32:15;12.32;;;7.70;;
66751;SDS011;53663;42.676;23.238;2023-11-22T02:34:40;18.70;;;9.50;;
66751;SDS011;53663;42.676;23.238;2023-11-22T02:37:06;15.80;;;8.85;;
66751;SDS011;53663;42.676;23.238;2023-11-22T02:39:45;16.92;;;8.30;;
66751;SDS011;53663;42.676;23.238;2023-11-22T02:42:23;20.90;;;9.27;;
66751;SDS011;53663;42.676;23.238;2023-11-22T02:44:49;17.63;;;8.60;;
66751;SDS011;53663;42.676;23.238;2023-11-22T02:47:15;13.73;;;8.43;;
66751;SDS011;53663;42.676;23.238;2023-11-22T02:49:40;18.25;;;8.70;;
66751;SDS011;53663;42.676;23.238;2023-11-22T02:52:06;19.98;;;9.95;;
66751;SDS011;53663;42.676;23.238;2023-11-22T02:54:31;14.68;;;8.77;;
66751;SDS011;53663;42.676;23.238;2023-11-22T02:56:57;18.45;;;9.35;;
66751;SDS011;53663;42.676;23.238;2023-11-22T02:59:22;16.23;;;8.15;;
66751;SDS011;53663;42.676;23.238;2023-11-22T03:01:48;14.45;;;8.23;;
66751;SDS011;53663;42.676;23.238;2023-11-22T03:04:16;17.15;;;8.70;;
66751;SDS011;53663;42.676;23.238;2023-11-22T03:06:41;19.23;;;8.65;;
66751;SDS011;53663;42.676;23.238;2023-11-22T03:09:07;20.23;;;8.77;;
66751;SDS011;53663;42.676;23.238;2023-11-22T03:11:34;18.50;;;8.90;;
66751;SDS011;53663;42.676;23.238;2023-11-22T03:13:59;22.83;;;8.73;;
66751;SDS011;53663;42.676;23.238;2023-11-22T03:16:28;18.83;;;9.10;;
66751;SDS011;53663;42.676;23.238;2023-11-22T03:18:54;20.00;;;9.05;;
66751;SDS011;53663;42.676;23.238;2023-11-22T03:21:21;18.38;;;8.88;;
66751;SDS011;53663;42.676;23.238;2023-11-22T03:23:46;17.58;;;8.23;;
66751;SDS011;53663;42.676;23.238;2023-11-22T03:26:12;15.90;;;8.43;;
66751;SDS011;53663;42.676;23.238;2023-11-22T03:28:37;15.80;;;8.57;;
66751;SDS011;53663;42.676;23.238;2023-11-22T03:31:05;13.38;;;8.27;;
66751;SDS011;53663;42.676;23.238;2023-11-22T03:33:34;13.60;;;8.40;;
66751;SDS011;53663;42.676;23.238;2023-11-22T03:35:59;15.90;;;8.25;;
66751;SDS011;53663;42.676;23.238;2023-11-22T03:38:24;25.88;;;8.57;;
66751;SDS011;53663;42.676;23.238;2023-11-22T03:40:50;14.27;;;7.47;;
66751;SDS011;53663;42.676;23.238;2023-11-22T03:43:15;17.33;;;9.48;;
66751;SDS011;53663;42.676;23.238;2023-11-22T03:45:41;16.13;;;8.45;;
66751;SDS011;53663;42.676;23.238;2023-11-22T03:48:06;19.92;;;8.80;;
66751;SDS011;53663;42.676;23.238;2023-11-22T03:50:32;15.65;;;8.23;;
66751;SDS011;53663;42.676;23.238;2023-11-22T03:52:57;17.75;;;8.38;;
66751;SDS011;53663;42.676;23.238;2023-11-22T03:55:23;15.35;;;8.13;;
66751;SDS011;53663;42.676;23.238;2023-11-22T03:57:49;20.23;;;9.07;;
66751;SDS011;53663;42.676;23.238;2023-11-22T04:00:14;33.22;;;14.20;;
66751;SDS011;53663;42.676;23.238;2023-11-22T04:02:40;30.83;;;14.82;;
66751;SDS011;53663;42.676;23.238;2023-11-22T04:05:06;29.23;;;13.40;;
66751;SDS011;53663;42.676;23.238;2023-11-22T04:07:32;28.58;;;13.52;;
66751;SDS011;53663;42.676;23.238;2023-11-22T04:09:58;26.80;;;12.45;;
66751;SDS011;53663;42.676;23.238;2023-11-22T04:12:24;25.65;;;11.48;;
66751;SDS011;53663;42.676;23.238;2023-11-22T04:14:50;18.15;;;9.18;;
66751;SDS011;53663;42.676;23.238;2023-11-22T04:17:16;23.85;;;9.23;;
66751;SDS011;53663;42.676;23.238;2023-11-22T04:19:43;18.40;;;9.20;;
66751;SDS011;53663;42.676;23.238;2023-11-22T04:22:08;16.40;;;8.30;;
66751;SDS011;53663;42.676;23.238;2023-11-22T04:24:35;19.90;;;8.30;;
66751;SDS011;53663;42.676;23.238;2023-11-22T04:27:01;17.55;;;9.07;;
66751;SDS011;53663;42.676;23.238;2023-11-22T04:29:27;25.30;;;9.05;;
66751;SDS011;53663;42.676;23.238;2023-11-22T04:31:53;19.80;;;8.30;;
66751;SDS011;53663;42.676;23.238;2023-11-22T04:34:18;14.98;;;8.60;;
66751;SDS011;53663;42.676;23.238;2023-11-22T04:36:45;25.88;;;8.85;;
66751;SDS011;53663;42.676;23.238;2023-11-22T04:39:11;15.52;;;9.38;;
66751;SDS011;53663;42.676;23.238;2023-11-22T04:41:38;24.73;;;9.45;;
66751;SDS011;53663;42.676;23.238;2023-11-22T04:44:04;18.40;;;9.68;;
66751;SDS011;53663;42.676;23.238;2023-11-22T04:46:29;22.70;;;11.00;;
66751;SDS011;53663;42.676;23.238;2023-11-22T04:48:55;20.42;;;11.43;;
66751;SDS011;53663;42.676;23.238;2023-11-22T04:51:21;25.73;;;12.25;;
66751;SDS011;53663;42.676;23.238;2023-11-22T04:53:46;24.65;;;11.23;;
66751;SDS011;53663;42.676;23.238;2023-11-22T04:56:12;21.77;;;11.30;;
66751;SDS011;53663;42.676;23.238;2023-11-22T04:58:37;20.75;;;11.07;;
66751;SDS011;53663;42.676;23.238;2023-11-22T05:01:03;20.25;;;10.55;;
66751;SDS011;53663;42.676;23.238;2023-11-22T05:03:29;18.70;;;10.07;;
66751;SDS011;53663;42.676;23.238;2023-11-22T05:05:55;26.63;;;10.90;;
66751;SDS011;53663;42.676;23.238;2023-11-22T05:08:20;19.08;;;10.68;;
66751;SDS011;53663;42.676;23.238;2023-11-22T05:10:46;19.10;;;10.77;;
66751;SDS011;53663;42.676;23.238;2023-11-22T05:13:11;20.75;;;10.40;;
66751;SDS011;53663;42.676;23.238;2023-11-22T05:15:37;17.45;;;10.38;;
66751;SDS011;53663;42.676;23.238;2023-11-22T05:18:03;17.63;;;10.60;;
66751;SDS011;53663;42.676;23.238;2023-11-22T05:20:28;20.70;;;11.02;;
66751;SDS011;53663;42.676;23.238;2023-11-22T05:22:53;22.60;;;10.95;;
66751;SDS011;53663;42.676;23.238;2023-11-22T05:25:19;18.60;;;10.52;;
66751;SDS011;53663;42.676;23.238;2023-11-22T05:27:44;17.83;;;10.50;;
66751;SDS011;53663;42.676;23.238;2023-11-22T05:30:10;17.48;;;9.95;;
66751;SDS011;53663;42.676;23.238;2023-11-22T05:32:36;15.13;;;9.90;;
66751;SDS011;53663;42.676;23.238;2023-11-22T05:35:01;19.35;;;10.15;;
66751;SDS011;53663;42.676;23.238;2023-11-22T05:37:28;18.50;;;10.52;;
66751;SDS011;53663;42.676;23.238;2023-11-22T05:39:54;25.00;;;10.02;;
66751;SDS011;53663;42.676;23.238;2023-11-22T05:42:20;18.17;;;9.75;;
66751;SDS011;53663;42.676;23.238;2023-11-22T05:44:45;19.83;;;9.50;;
66751;SDS011;53663;42.676;23.238;2023-11-22T05:47:11;18.33;;;10.13;;
66751;SDS011;53663;42.676;23.238;2023-11-22T05:49:38;16.30;;;9.73;;
66751;SDS011;53663;42.676;23.238;2023-11-22T05:52:03;19.80;;;11.05;;
66751;SDS011;53663;42.676;23.238;2023-11-22T05:54:29;23.27;;;12.73;;
66751;SDS011;53663;42.676;23.238;2023-11-22T05:56:57;37.30;;;16.38;;
66751;SDS011;53663;42.676;23.238;2023-11-22T05:59:22;21.98;;;12.18;;
66751;SDS011;53663;42.676;23.238;2023-11-22T06:01:49;27.83;;;13.13;;
66751;SDS011;53663;42.676;23.238;2023-11-22T06:04:14;20.73;;;11.45;;
66751;SDS011;53663;42.676;23.238;2023-11-22T06:06:40;21.08;;;10.60;;
66751;SDS011;53663;42.676;23.238;2023-11-22T06:09:05;19.75;;;12.07;;
66751;SDS011;53663;42.676;23.238;2023-11-22T06:11:32;23.23;;;11.55;;
66751;SDS011;53663;42.676;23.238;2023-11-22T06:13:58;19.88;;;11.77;;
66751;SDS011;53663;42.676;23.238;2023-11-22T06:16:23;24.20;;;12.85;;
66751;SDS011;53663;42.676;23.238;2023-11-22T06:18:49;23.55;;;11.82;;
66751;SDS011;53663;42.676;23.238;2023-11-22T06:21:14;29.10;;;13.10;;
66751;SDS011;53663;42.676;23.238;2023-11-22T06:23:40;27.38;;;13.52;;
66751;SDS011;53663;42.676;23.238;2023-11-22T06:26:05;29.65;;;15.00;;
66751;SDS011;53663;42.676;23.238;2023-11-22T06:28:31;27.35;;;14.18;;
66751;SDS011;53663;42.676;23.238;2023-11-22T06:30:57;23.25;;;12.30;;
66751;SDS011;53663;42.676;23.238;2023-11-22T06:33:22;24.15;;;13.20;;
66751;SDS011;53663;42.676;23.238;2023-11-22T06:35:48;20.63;;;12.32;;
66751;SDS011;53663;42.676;23.238;2023-11-22T06:38:13;21.55;;;12.40;;
66751;SDS011;53663;42.676;23.238;2023-11-22T06:40:39;25.25;;;13.50;;
66751;SDS011;53663;42.676;23.238;2023-11-22T06:43:05;42.03;;;18.23;;
66751;SDS011;53663;42.676;23.238;2023-11-22T06:45:30;54.70;;;22.63;;
66751;SDS011;53663;42.676;23.238;2023-11-22T06:47:59;48.05;;;20.00;;
66751;SDS011;53663;42.676;23.238;2023-11-22T06:50:25;39.58;;;19.40;;
66751;SDS011;53663;42.676;23.238;2023-11-22T06:52:51;32.35;;;17.25;;
66751;SDS011;53663;42.676;23.238;2023-11-22T06:55:18;30.50;;;16.63;;
66751;SDS011;53663;42.676;23.238;2023-11-22T06:57:44;27.60;;;14.35;;
66751;SDS011;53663;42.676;23.238;2023-11-22T07:00:10;23.83;;;13.93;;
66751;SDS011;53663;42.676;23.238;2023-11-22T07:02:37;28.88;;;14.82;;
66751;SDS011;53663;42.676;23.238;2023-11-22T07:05:04;23.92;;;14.60;;
66751;SDS011;53663;42.676;23.238;2023-11-22T07:07:34;24.73;;;14.20;;
66751;SDS011;53663;42.676;23.238;2023-11-22T07:10:00;25.08;;;14.35;;
66751;SDS011;53663;42.676;23.238;2023-11-22T07:12:25;25.52;;;14.90;;
66751;SDS011;53663;42.676;23.238;2023-11-22T07:14:52;61.38;;;31.15;;
66751;SDS011;53663;42.676;23.238;2023-11-22T07:17:17;32.72;;;17.88;;
66751;SDS011;53663;42.676;23.238;2023-11-22T07:19:43;26.60;;;15.95;;
66751;SDS011;53663;42.676;23.238;2023-11-22T07:22:15;27.83;;;18.13;;
66751;SDS011;53663;42.676;23.238;2023-11-22T07:24:41;28.33;;;17.58;;
66751;SDS011;53663;42.676;23.238;2023-11-22T07:27:11;29.10;;;15.05;;
66751;SDS011;53663;42.676;23.238;2023-11-22T07:29:40;28.77;;;14.68;;
66751;SDS011;53663;42.676;23.238;2023-11-22T07:32:07;28.10;;;15.40;;
66751;SDS011;53663;42.676;23.238;2023-11-22T07:34:36;27.67;;;13.77;;
66751;SDS011;53663;42.676;23.238;2023-11-22T07:37:04;24.27;;;13.63;;
66751;SDS011;53663;42.676;23.238;2023-11-22T07:39:32;19.98;;;12.23;;
66751;SDS011;53663;42.676;23.238;2023-11-22T07:41:58;18.73;;;11.98;;
66751;SDS011;53663;42.676;23.238;2023-11-22T07:44:23;17.80;;;11.70;;
66751;SDS011;53663;42.676;23.238;2023-11-22T07:46:50;20.48;;;11.30;;
66751;SDS011;53663;42.676;23.238;2023-11-22T07:49:17;18.70;;;11.73;;
66751;SDS011;53663;42.676;23.238;2023-11-22T07:51:44;20.67;;;11.60;;
66751;SDS011;53663;42.676;23.238;2023-11-22T07:54:12;19.70;;;10.90;;
66751;SDS011;53663;42.676;23.238;2023-11-22T07:56:43;15.98;;;10.00;;
66751;SDS011;53663;42.676;23.238;2023-11-22T07:59:09;18.02;;;10.27;;
66751;SDS011;53663;42.676;23.238;2023-11-22T08:01:38;18.52;;;11.10;;
66751;SDS011;53663;42.676;23.238;2023-11-22T08:04:08;19.40;;;10.80;;
66751;SDS011;53663;42.676;23.238;2023-11-22T08:06:34;16.63;;;10.75;;
66751;SDS011;53663;42.676;23.238;2023-11-22T08:09:00;26.95;;;16.92;;
66751;SDS011;53663;42.676;23.238;2023-11-22T08:11:26;20.92;;;12.07;;
66751;SDS011;53663;42.676;23.238;2023-11-22T08:13:53;18.38;;;11.60;;
66751;SDS011;53663;42.676;23.238;2023-11-22T08:16:20;22.35;;;11.40;;
66751;SDS011;53663;42.676;23.238;2023-11-22T08:18:45;19.17;;;11.68;;
66751;SDS011;53663;42.676;23.238;2023-11-22T08:21:11;24.00;;;11.77;;
66751;SDS011;53663;42.676;23.238;2023-11-22T08:23:37;15.75;;;9.55;;
66751;SDS011;53663;42.676;23.238;2023-11-22T08:26:02;15.23;;;10.05;;
66751;SDS011;53663;42.676;23.238;2023-11-22T08:28:29;17.15;;;11.48;;
66751;SDS011;53663;42.676;23.238;2023-11-22T08:30:55;18.75;;;11.70;;
66751;SDS011;53663;42.676;23.238;2023-11-22T08:33:21;17.98;;;10.23;;
66751;SDS011;53663;42.676;23.238;2023-11-22T08:35:47;15.70;;;10.82;;
66751;SDS011;53663;42.676;23.238;2023-11-22T08:38:16;26.35;;;15.48;;
66751;SDS011;53663;42.676;23.238;2023-11-22T08:40:42;29.15;;;16.35;;
66751;SDS011;53663;42.676;23.238;2023-11-22T08:43:07;27.38;;;14.35;;
66751;SDS011;53663;42.676;23.238;2023-11-22T08:45:33;24.40;;;13.07;;
66751;SDS011;53663;42.676;23.238;2023-11-22T08:48:00;24.15;;;13.00;;
66751;SDS011;53663;42.676;23.238;2023-11-22T08:50:25;33.45;;;14.88;;
66751;SDS011;53663;42.676;23.238;2023-11-22T08:52:51;36.63;;;16.33;;
66751;SDS011;53663;42.676;23.238;2023-11-22T08:55:20;25.42;;;14.82;;
66751;SDS011;53663;42.676;23.238;2023-11-22T08:57:50;25.55;;;12.68;;
66751;SDS011;53663;42.676;23.238;2023-11-22T09:00:18;21.58;;;13.45;;
66751;SDS011;53663;42.676;23.238;2023-11-22T09:02:50;24.05;;;13.73;;
66751;SDS011;53663;42.676;23.238;2023-11-22T09:05:16;27.55;;;15.90;;
66751;SDS011;53663;42.676;23.238;2023-11-22T09:07:42;35.20;;;16.65;;
66751;SDS011;53663;42.676;23.238;2023-11-22T09:10:10;29.95;;;15.80;;
66751;SDS011;53663;42.676;23.238;2023-11-22T09:12:37;31.42;;;16.88;;
66751;SDS011;53663;42.676;23.238;2023-11-22T09:15:09;31.63;;;17.88;;
66751;SDS011;53663;42.676;23.238;2023-11-22T09:17:39;52.65;;;25.05;;
66751;SDS011;53663;42.676;23.238;2023-11-22T09:20:08;53.33;;;28.38;;
66751;SDS011;53663;42.676;23.238;2023-11-22T09:22:38;40.05;;;23.88;;
66751;SDS011;53663;42.676;23.238;2023-11-22T09:25:15;66.88;;;31.38;;
66751;SDS011;53663;42.676;23.238;2023-11-22T09:27:49;59.63;;;26.50;;
66751;SDS011;53663;42.676;23.238;2023-11-22T09:30:19;44.75;;;21.52;;
66751;SDS011;53663;42.676;23.238;2023-11-22T09:33:04;32.95;;;17.35;;
66751;SDS011;53663;42.676;23.238;2023-11-22T09:35:31;38.60;;;20.27;;
66751;SDS011;53663;42.676;23.238;2023-11-22T09:37:59;26.00;;;14.25;;
66751;SDS011;53663;42.676;23.238;2023-11-22T09:40:27;20.77;;;13.68;;
66751;SDS011;53663;42.676;23.238;2023-11-22T09:42:55;22.20;;;13.20;;
66751;SDS011;53663;42.676;23.238;2023-11-22T09:45:21;22.92;;;13.98;;
66751;SDS011;53663;42.676;23.238;2023-11-22T09:47:47;25.52;;;16.00;;
66751;SDS011;53663;42.676;23.238;2023-11-22T09:50:19;29.40;;;16.65;;
66751;SDS011;53663;42.676;23.238;2023-11-22T09:52:50;30.92;;;17.83;;
66751;SDS011;53663;42.676;23.238;2023-11-22T09:55:19;40.85;;;22.13;;
66751;SDS011;53663;42.676;23.238;2023-11-22T09:57:47;28.17;;;15.02;;
66751;SDS011;53663;42.676;23.238;2023-11-22T10:00:13;29.75;;;15.65;;
66751;SDS011;53663;42.676;23.238;2023-11-22T10:02:44;21.27;;;13.77;;
66751;SDS011;53663;42.676;23.238;2023-11-22T10:05:10;21.77;;;13.23;;
66751;SDS011;53663;42.676;23.238;2023-11-22T10:07:37;21.27;;;13.02;;
66751;SDS011;53663;42.676;23.238;2023-11-22T10:10:03;19.95;;;12.60;;
66751;SDS011;53663;42.676;23.238;2023-11-22T10:12:30;16.63;;;10.68;;
66751;SDS011;53663;42.676;23.238;2023-11-22T10:15:12;22.67;;;12.35;;
66751;SDS011;53663;42.676;23.238;2023-11-22T10:17:38;17.50;;;10.88;;
66751;SDS011;53663;42.676;23.238;2023-11-22T10:20:04;16.85;;;10.45;;
66751;SDS011;53663;42.676;23.238;2023-11-22T10:22:43;24.15;;;10.40;;
66751;SDS011;53663;42.676;23.238;2023-11-22T10:25:10;18.73;;;11.05;;
66751;SDS011;53663;42.676;23.238;2023-11-22T10:27:38;16.85;;;10.80;;
66751;SDS011;53663;42.676;23.238;2023-11-22T10:30:04;15.88;;;8.75;;
66751;SDS011;53663;42.676;23.238;2023-11-22T10:32:30;16.75;;;8.93;;
66751;SDS011;53663;42.676;23.238;2023-11-22T10:34:56;14.70;;;8.73;;
66751;SDS011;53663;42.676;23.238;2023-11-22T10:37:21;15.07;;;9.45;;
66751;SDS011;53663;42.676;23.238;2023-11-22T10:39:52;15.68;;;9.18;;
66751;SDS011;53663;42.676;23.238;2023-11-22T10:42:18;16.13;;;9.52;;
66751;SDS011;53663;42.676;23.238;2023-11-22T10:44:44;14.93;;;9.32;;
66751;SDS011;53663;42.676;23.238;2023-11-22T10:47:13;18.42;;;9.98;;
66751;SDS011;53663;42.676;23.238;2023-11-22T10:49:42;12.95;;;8.88;;
66751;SDS011;53663;42.676;23.238;2023-11-22T10:52:08;16.95;;;10.25;;
66751;SDS011;53663;42.676;23.238;2023-11-22T10:54:39;21.77;;;10.60;;
66751;SDS011;53663;42.676;23.238;2023-11-22T10:57:09;18.40;;;9.73;;
66751;SDS011;53663;42.676;23.238;2023-11-22T10:59:37;17.38;;;11.95;;
66751;SDS011;53663;42.676;23.238;2023-11-22T11:02:10;19.95;;;12.43;;
66751;SDS011;53663;42.676;23.238;2023-11-22T11:04:49;19.40;;;11.70;;
66751;SDS011;53663;42.676;23.238;2023-11-22T11:07:21;21.90;;;11.88;;
66751;SDS011;53663;42.676;23.238;2023-11-22T11:09:49;19.83;;;12.23;;
66751;SDS011;53663;42.676;23.238;2023-11-22T11:12:16;20.35;;;11.52;;
66751;SDS011;53663;42.676;23.238;2023-11-22T11:14:43;32.85;;;12.65;;
66751;SDS011;53663;42.676;23.238;2023-11-22T11:17:12;24.02;;;11.00;;
66751;SDS011;53663;42.676;23.238;2023-11-22T11:19:39;22.02;;;12.32;;
66751;SDS011;53663;42.676;23.238;2023-11-22T11:22:09;18.38;;;12.65;;
66751;SDS011;53663;42.676;23.238;2023-11-22T11:24:39;23.15;;;14.32;;
66751;SDS011;53663;42.676;23.238;2023-11-22T11:27:08;24.93;;;12.97;;
66751;SDS011;53663;42.676;23.238;2023-11-22T11:29:36;20.77;;;13.38;;
66751;SDS011;53663;42.676;23.238;2023-11-22T11:32:09;25.08;;;14.57;;
66751;SDS011;53663;42.676;23.238;2023-11-22T11:35:00;25.33;;;14.93;;
66751;SDS011;53663;42.676;23.238;2023-11-22T11:37:31;26.80;;;15.27;;
66751;SDS011;53663;42.676;23.238;2023-11-22T11:39:57;31.17;;;15.10;;
66751;SDS011;53663;42.676;23.238;2023-11-22T11:42:23;25.85;;;14.52;;
66751;SDS011;53663;42.676;23.238;2023-11-22T11:47:26;23.67;;;13.75;;
66751;SDS011;53663;42.676;23.238;2023-11-22T11:49:52;27.50;;;14.50;;
66751;SDS011;53663;42.676;23.238;2023-11-22T11:52:17;28.25;;;14.27;;
66751;SDS011;53663;42.676;23.238;2023-11-22T11:54:43;28.95;;;14.40;;
66751;SDS011;53663;42.676;23.238;2023-11-22T11:57:09;22.95;;;14.50;;
66751;SDS011;53663;42.676;23.238;2023-11-22T11:59:35;22.55;;;13.90;;
66751;SDS011;53663;42.676;23.238;2023-11-22T12:02:01;23.73;;;14.90;;
66751;SDS011;53663;42.676;23.238;2023-11-22T12:04:27;23.60;;;14.43;;
66751;SDS011;53663;42.676;23.238;2023-11-22T12:06:52;24.50;;;14.10;;
66751;SDS011;53663;42.676;23.238;2023-11-22T12:09:24;25.02;;;14.82;;
66751;SDS011;53663;42.676;23.238;2023-11-22T12:11:51;25.23;;;16.45;;
66751;SDS011;53663;42.676;23.238;2023-11-22T12:14:19;24.77;;;16.23;;
66751;SDS011;53663;42.676;23.238;2023-11-22T12:16:45;31.88;;;15.90;;
66751;SDS011;53663;42.676;23.238;2023-11-22T12:19:20;26.10;;;17.92;;
66751;SDS011;53663;42.676;23.238;2023-11-22T12:21:51;36.60;;;21.95;;
66751;SDS011;53663;42.676;23.238;2023-11-22T12:24:17;32.30;;;21.65;;
66751;SDS011;53663;42.676;23.238;2023-11-22T12:26:46;33.42;;;22.92;;
66751;SDS011;53663;42.676;23.238;2023-11-22T12:29:14;35.95;;;23.65;;
66751;SDS011;53663;42.676;23.238;2023-11-22T12:31:45;44.22;;;26.20;;
66751;SDS011;53663;42.676;23.238;2023-11-22T12:34:14;36.42;;;24.27;;
66751;SDS011;53663;42.676;23.238;2023-11-22T12:36:41;41.58;;;25.65;;
66751;SDS011;53663;42.676;23.238;2023-11-22T12:39:08;39.95;;;25.52;;
66751;SDS011;53663;42.676;23.238;2023-11-22T12:41:41;36.90;;;24.17;;
66751;SDS011;53663;42.676;23.238;2023-11-22T12:44:11;44.15;;;24.42;;
66751;SDS011;53663;42.676;23.238;2023-11-22T12:49:21;36.33;;;23.67;;
66751;SDS011;53663;42.676;23.238;2023-11-22T12:51:48;29.33;;;19.20;;
66751;SDS011;53663;42.676;23.238;2023-11-22T12:54:14;25.00;;;17.35;;
66751;SDS011;53663;42.676;23.238;2023-11-22T12:56:41;28.55;;;16.05;;
66751;SDS011;53663;42.676;23.238;2023-11-22T12:59:06;31.65;;;17.50;;
66751;SDS011;53663;42.676;23.238;2023-11-22T13:01:33;24.23;;;15.77;;
66751;SDS011;53663;42.676;23.238;2023-11-22T13:04:00;31.00;;;18.30;;
66751;SDS011;53663;42.676;23.238;2023-11-22T13:06:26;25.48;;;17.55;;
66751;SDS011;53663;42.676;23.238;2023-11-22T13:08:52;29.33;;;17.70;;
66751;SDS011;53663;42.676;23.238;2023-11-22T13:11:20;29.27;;;17.55;;
66751;SDS011;53663;42.676;23.238;2023-11-22T13:13:46;40.03;;;21.67;;
66751;SDS011;53663;42.676;23.238;2023-11-22T13:16:12;27.65;;;15.27;;
66751;SDS011;53663;42.676;23.238;2023-11-22T13:18:39;34.90;;;20.42;;
66751;SDS011;53663;42.676;23.238;2023-11-22T13:21:04;26.55;;;16.65;;
66751;SDS011;53663;42.676;23.238;2023-11-22T13:23:30;29.92;;;15.02;;
66751;SDS011;53663;42.676;23.238;2023-11-22T13:25:56;25.98;;;15.90;;
66751;SDS011;53663;42.676;23.238;2023-11-22T13:28:21;31.50;;;16.05;;
66751;SDS011;53663;42.676;23.238;2023-11-22T13:30:49;28.98;;;15.77;;
66751;SDS011;53663;42.676;23.238;2023-11-22T13:33:15;27.60;;;16.17;;
66751;SDS011;53663;42.676;23.238;2023-11-22T13:35:41;30.15;;;16.50;;
66751;SDS011;53663;42.676;23.238;2023-11-22T13:38:06;29.80;;;17.45;;
66751;SDS011;53663;42.676;23.238;2023-11-22T13:40:36;30.65;;;16.92;;
66751;SDS011;53663;42.676;23.238;2023-11-22T13:43:04;27.13;;;16.98;;
66751;SDS011;53663;42.676;23.238;2023-11-22T13:45:31;24.02;;;16.83;;
66751;SDS011;53663;42.676;23.238;2023-11-22T13:47:58;26.65;;;16.17;;
66751;SDS011;53663;42.676;23.238;2023-11-22T13:50:31;27.48;;;14.38;;
66751;SDS011;53663;42.676;23.238;2023-11-22T13:52:57;24.60;;;14.52;;
66751;SDS011;53663;42.676;23.238;2023-11-22T13:55:24;22.45;;;12.98;;
66751;SDS011;53663;42.676;23.238;2023-11-22T13:57:50;26.25;;;13.10;;
66751;SDS011;53663;42.676;23.238;2023-11-22T14:00:20;22.63;;;12.77;;
66751;SDS011;53663;42.676;23.238;2023-11-22T14:02:55;22.67;;;12.98;;
66751;SDS011;53663;42.676;23.238;2023-11-22T14:07:50;20.48;;;12.35;;
66751;SDS011;53663;42.676;23.238;2023-11-22T14:10:16;19.98;;;12.45;;
66751;SDS011;53663;42.676;23.238;2023-11-22T14:12:43;16.17;;;9.65;;
66751;SDS011;53663;42.676;23.238;2023-11-22T14:15:09;21.65;;;10.82;;
66751;SDS011;53663;42.676;23.238;2023-11-22T14:17:36;19.58;;;10.70;;
66751;SDS011;53663;42.676;23.238;2023-11-22T14:20:04;19.10;;;10.73;;